Time,TemperatureF,DewpointF,PressureIn,WindDirection,WindDirectionDegrees,WindSpeedMPH,WindSpeedGustMPH,Humidity,HourlyPrecipIn,Conditions,Clouds,dailyrainin,SoftwareType,DateUTC
2013-02-10 00:00:00,46.8,44.6,29.45,SE,135,15.0,20.0,92,0.00,RA,RA,0.00,WeatherDisplay:10.37,2013-02-10 00:00:00,
2013-02-10 00:10:00,46.8,44.6,29.45,SE,135,9.0,18.0,92,0.00,CLR,CLR,0.00,WeatherDisplay:10.37,2013-02-10 00:10:00,
2013-02-10 00:20:00,46.8,44.6,29.45,SE,135,13.0,18.0,92,0.00,CLR,CLR,0.00,WeatherDisplay:10.37,2013-02-10 00:20:00,
2013-02-10 00:30:00,46.8,44.6,29.44,SE,135,10.0,18.0,92,0.00,CLR,CLR,0.00,WeatherDisplay:10.37,2013-02-10 00:30:00,
2013-02-10 00:40:00,46.6,44.4,29.44,SE,135,7.0,13.0,92,0.01,RA,RA,0.01,WeatherDisplay:10.37,2013-02-10 00:40:00,
2013-02-10 00:50:00,46.6,44.4,29.43,SE,135,15.0,17.0,92,0.00,CLR,CLR,0.01,WeatherDisplay:10.37,2013-02-10 00:50:00,
2013-02-10 01:00:00,46.4,44.2,29.42,SE,135,6.0,17.0,92,0.00,CLR,CLR,0.01,WeatherDisplay:10.37,2013-02-10 01:00:00,
2013-02-10 01:10:00,46.4,44.2,29.42,SE,135,3.0,9.0,92,0.00,CLR,CLR,0.01,WeatherDisplay:10.37,2013-02-10 01:10:00,
2013-02-10 01:20:00,46.4,44.2,29.41,SE,135,7.0,8.0,92,0.00,CLR,CLR,0.01,WeatherDisplay:10.37,2013-02-10 01:20:00,
2013-02-10 01:30:00,46.4,44.2,29.41,SE,135,5.0,8.0,92,0.00,CLR,CLR,0.01,WeatherDisplay:10.37,2013-02-10 01:30:00,
2013-02-10 01:40:00,46.2,44.3,29.40,SE,135,5.0,7.0,93,0.00,CLR,CLR,0.01,WeatherDisplay:10.37,2013-02-10 01:40:00,
2013-02-10 01:50:00,46.0,44.1,29.40,SE,135,5.0,7.0,93,0.00,CLR,CLR,0.01,WeatherDisplay:10.37,2013-02-10 01:50:00,
2013-02-10 02:00:00,46.4,44.2,29.39,SE,135,10.0,14.0,92,0.00,CLR,CLR,0.01,WeatherDisplay:10.37,2013-02-10 02:00:00,
2013-02-10 02:10:00,46.2,44.3,29.39,SE,135,10.0,15.0,93,0.00,CLR,CLR,0.01,WeatherDisplay:10.37,2013-02-10 02:10:00,
2013-02-10 02:20:00,46.0,44.1,29.38,SE,135,7.0,13.0,93,0.00,CLR,CLR,0.01,WeatherDisplay:10.37,2013-02-10 02:20:00,
2013-02-10 02:30:00,45.9,43.7,29.37,SE,135,7.0,12.0,92,0.00,CLR,CLR,0.01,WeatherDisplay:10.37,2013-02-10 02:30:00,
2013-02-10 02:40:00,45.7,43.5,29.36,SE,135,7.0,13.0,92,0.00,CLR,CLR,0.01,WeatherDisplay:10.37,2013-02-10 02:40:00,
2013-02-10 02:50:00,45.7,43.5,29.36,SE,135,10.0,14.0,92,0.00,CLR,CLR,0.01,WeatherDisplay:10.37,2013-02-10 02:50:00,
2013-02-10 03:00:00,45.5,43.0,29.35,SE,135,10.0,15.0,91,0.00,CLR,CLR,0.01,WeatherDisplay:10.37,2013-02-10 03:00:00,
2013-02-10 03:10:00,45.5,43.0,29.35,ESE,113,13.0,16.0,91,0.00,CLR,CLR,0.01,WeatherDisplay:10.37,2013-02-10 03:10:00,
2013-02-10 03:20:00,45.7,43.2,29.34,East,90,12.0,14.0,91,0.00,CLR,CLR,0.01,WeatherDisplay:10.37,2013-02-10 03:20:00,
2013-02-10 03:30:00,45.5,42.7,29.34,SE,146,12.0,15.0,90,0.00,CLR,CLR,0.01,WeatherDisplay:10.37,2013-02-10 03:30:00,
2013-02-10 03:40:00,45.3,42.6,29.34,South,180,10.0,15.0,90,0.00,CLR,CLR,0.01,WeatherDisplay:10.37,2013-02-10 03:40:00,
2013-02-10 03:50:00,45.0,42.2,29.33,SSW,196,7.0,13.0,90,0.00,CLR,CLR,0.01,WeatherDisplay:10.37,2013-02-10 03:50:00,
2013-02-10 04:00:00,45.1,42.4,29.33,SSW,202,8.0,12.0,90,0.00,CLR,CLR,0.01,WeatherDisplay:10.37,2013-02-10 04:00:00,
2013-02-10 04:10:00,44.8,42.0,29.33,SSW,202,14.0,20.0,90,0.00,CLR,CLR,0.01,WeatherDisplay:10.37,2013-02-10 04:10:00,
2013-02-10 04:20:00,44.8,42.0,29.33,SW,219,13.0,23.0,90,0.00,CLR,CLR,0.01,WeatherDisplay:10.37,2013-02-10 04:20:00,
2013-02-10 04:30:00,44.6,41.8,29.32,SW,225,13.0,17.0,90,0.00,CLR,CLR,0.01,WeatherDisplay:10.37,2013-02-10 04:30:00,
2013-02-10 04:40:00,44.9,42.2,29.32,SW,225,12.0,18.0,90,0.00,CLR,CLR,0.01,WeatherDisplay:10.37,2013-02-10 04:40:00,
2013-02-10 04:50:00,45.3,42.0,29.31,SW,225,13.0,17.0,88,0.00,CLR,CLR,0.01,WeatherDisplay:10.37,2013-02-10 04:50:00,
2013-02-10 05:00:00,44.8,41.1,29.32,SW,225,9.0,15.0,87,0.00,CLR,CLR,0.01,WeatherDisplay:10.37,2013-02-10 05:00:00,
2013-02-10 05:10:00,44.6,41.3,29.31,SW,225,10.0,15.0,88,0.00,CLR,CLR,0.01,WeatherDisplay:10.37,2013-02-10 05:10:00,
2013-02-10 05:20:00,44.6,41.3,29.30,SW,225,9.0,13.0,88,0.00,CLR,CLR,0.01,WeatherDisplay:10.37,2013-02-10 05:20:00,
2013-02-10 05:30:00,45.0,41.3,29.30,SW,225,8.0,13.0,87,0.00,CLR,CLR,0.01,WeatherDisplay:10.37,2013-02-10 05:30:00,
2013-02-10 05:40:00,44.6,40.7,29.30,SW,225,10.0,14.0,86,0.00,CLR,CLR,0.01,WeatherDisplay:10.37,2013-02-10 05:40:00,
2013-02-10 05:50:00,44.3,40.7,29.29,SW,225,8.0,13.0,87,0.00,CLR,CLR,0.01,WeatherDisplay:10.37,2013-02-10 05:50:00,
2013-02-10 06:00:00,44.1,40.4,29.30,SW,225,8.0,12.0,87,0.00,CLR,CLR,0.01,WeatherDisplay:10.37,2013-02-10 06:00:00,
2013-02-10 06:10:00,43.7,40.4,29.29,SW,225,7.0,11.0,88,0.00,CLR,CLR,0.01,WeatherDisplay:10.37,2013-02-10 06:10:00,
2013-02-10 06:20:00,43.3,40.0,29.29,SW,225,10.0,13.0,88,0.00,CLR,CLR,0.01,WeatherDisplay:10.37,2013-02-10 06:20:00,
2013-02-10 06:30:00,43.2,39.8,29.29,SW,225,9.0,13.0,88,0.00,CLR,CLR,0.01,WeatherDisplay:10.37,2013-02-10 06:30:00,
2013-02-10 06:40:00,43.0,39.7,29.28,SW,225,8.0,13.0,88,0.00,CLR,CLR,0.01,WeatherDisplay:10.37,2013-02-10 06:40:00,
2013-02-10 06:50:00,42.8,39.5,29.28,SW,225,6.0,11.0,88,0.00,CLR,CLR,0.01,WeatherDisplay:10.37,2013-02-10 06:50:00,
2013-02-10 07:00:00,42.8,39.2,29.28,SW,225,10.0,14.0,87,0.00,CLR,CLR,0.01,WeatherDisplay:10.37,2013-02-10 07:00:00,
2013-02-10 07:10:00,42.6,39.3,29.27,SW,225,10.0,14.0,88,0.00,CLR,CLR,0.01,WeatherDisplay:10.37,2013-02-10 07:10:00,
2013-02-10 07:20:00,42.6,39.3,29.28,SW,225,8.0,14.0,88,0.00,CLR,CLR,0.01,WeatherDisplay:10.37,2013-02-10 07:20:00,
2013-02-10 07:30:00,42.4,39.1,29.27,SW,225,7.0,13.0,88,0.00,CLR,CLR,0.01,WeatherDisplay:10.37,2013-02-10 07:30:00,
2013-02-10 07:40:00,42.3,38.7,29.27,SW,225,8.0,13.0,87,0.00,CLR,CLR,0.01,WeatherDisplay:10.37,2013-02-10 07:40:00,
2013-02-10 07:50:00,42.1,38.2,29.27,SW,225,12.0,15.0,86,0.00,CLR,CLR,0.01,WeatherDisplay:10.37,2013-02-10 07:50:00,
2013-02-10 08:00:00,42.2,38.0,29.27,SW,225,10.0,16.0,85,0.00,CLR,CLR,0.01,WeatherDisplay:10.37,2013-02-10 08:00:00,
2013-02-10 08:10:00,41.7,37.5,29.27,SW,225,9.0,15.0,85,0.00,CLR,CLR,0.01,WeatherDisplay:10.37,2013-02-10 08:10:00,
2013-02-10 08:20:00,41.7,37.8,29.27,SW,225,9.0,14.0,86,0.00,CLR,CLR,0.01,WeatherDisplay:10.37,2013-02-10 08:20:00,
2013-02-10 08:30:00,42.8,38.6,29.26,West,263,12.0,17.0,85,0.00,CLR,CLR,0.01,WeatherDisplay:10.37,2013-02-10 08:30:00,
2013-02-10 08:40:00,43.2,38.0,29.26,West,270,10.0,17.0,82,0.00,CLR,CLR,0.01,WeatherDisplay:10.37,2013-02-10 08:40:00,
2013-02-10 08:50:00,43.5,37.4,29.25,NW,305,12.0,17.0,79,0.00,CLR,CLR,0.01,WeatherDisplay:10.37,2013-02-10 08:50:00,
2013-02-10 09:00:00,43.7,37.3,29.25,NW,315,9.0,15.0,78,0.00,CLR,CLR,0.01,WeatherDisplay:10.37,2013-02-10 09:00:00,
2013-02-10 09:10:00,43.5,37.1,29.25,NW,315,8.0,15.0,78,0.00,CLR,CLR,0.01,WeatherDisplay:10.37,2013-02-10 09:10:00,
2013-02-10 09:20:00,43.5,36.8,29.25,NW,308,8.0,13.0,77,0.00,CLR,CLR,0.01,WeatherDisplay:10.37,2013-02-10 09:20:00,
2013-02-10 09:30:00,43.3,36.9,29.25,West,273,15.0,20.0,78,0.00,CLR,CLR,0.01,WeatherDisplay:10.37,2013-02-10 09:30:00,
2013-02-10 09:40:00,43.4,36.7,29.25,West,270,13.0,17.0,77,0.00,CLR,CLR,0.01,WeatherDisplay:10.37,2013-02-10 09:40:00,
2013-02-10 09:50:00,43.4,36.7,29.24,West,270,13.0,17.0,77,0.00,CLR,CLR,0.01,WeatherDisplay:10.37,2013-02-10 09:50:00,
2013-02-10 10:00:00,43.6,36.9,29.24,WNW,295,14.0,17.0,77,0.00,CLR,CLR,0.01,WeatherDisplay:10.37,2013-02-10 10:00:00,
2013-02-10 10:10:00,43.7,37.3,29.24,WNW,299,12.0,17.0,78,0.00,CLR,CLR,0.01,WeatherDisplay:10.37,2013-02-10 10:10:00,
2013-02-10 10:20:00,43.3,36.9,29.23,West,270,15.0,20.0,78,0.00,CLR,CLR,0.01,WeatherDisplay:10.37,2013-02-10 10:20:00,
2013-02-10 10:30:00,43.3,37.3,29.23,WNW,287,14.0,21.0,79,0.00,CLR,CLR,0.01,WeatherDisplay:10.37,2013-02-10 10:30:00,
2013-02-10 10:40:00,43.5,37.5,29.23,WNW,283,13.0,20.0,79,0.00,CLR,CLR,0.01,WeatherDisplay:10.37,2013-02-10 10:40:00,
2013-02-10 10:50:00,43.5,37.4,29.23,West,270,10.0,18.0,79,0.00,CLR,CLR,0.01,WeatherDisplay:10.37,2013-02-10 10:50:00,
2013-02-10 11:00:00,43.9,37.5,29.22,West,270,13.0,20.0,78,0.00,CLR,CLR,0.01,WeatherDisplay:10.37,2013-02-10 11:00:00,
2013-02-10 11:10:00,44.4,37.3,29.22,West,270,12.0,20.0,76,0.00,CLR,CLR,0.01,WeatherDisplay:10.37,2013-02-10 11:10:00,
2013-02-10 11:20:00,44.2,36.8,29.22,NW,312,13.0,20.0,75,0.00,CLR,CLR,0.01,WeatherDisplay:10.37,2013-02-10 11:20:00,
2013-02-10 11:30:00,43.9,36.8,29.21,NW,313,13.0,20.0,76,0.00,CLR,CLR,0.01,WeatherDisplay:10.37,2013-02-10 11:30:00,
2013-02-10 11:40:00,43.9,37.1,29.21,NW,312,16.0,20.0,77,0.00,CLR,CLR,0.01,WeatherDisplay:10.37,2013-02-10 11:40:00,
2013-02-10 11:50:00,43.9,36.8,29.20,NW,313,15.0,23.0,76,0.00,CLR,CLR,0.01,WeatherDisplay:10.37,2013-02-10 11:50:00,
2013-02-10 12:00:00,44.4,37.3,29.20,NW,315,14.0,18.0,76,0.00,CLR,CLR,0.01,WeatherDisplay:10.37,2013-02-10 12:00:00,
2013-02-10 12:10:00,44.6,36.5,29.20,NW,315,10.0,17.0,73,0.00,CLR,CLR,0.01,WeatherDisplay:10.37,2013-02-10 12:10:00,
2013-02-10 12:20:00,44.6,35.8,29.20,NW,315,12.0,17.0,71,0.00,CLR,CLR,0.01,WeatherDisplay:10.37,2013-02-10 12:20:00,
2013-02-10 12:30:00,44.6,35.8,29.20,NW,315,14.0,20.0,71,0.00,CLR,CLR,0.01,WeatherDisplay:10.37,2013-02-10 12:30:00,
2013-02-10 12:40:00,44.6,35.4,29.19,NW,315,12.0,20.0,70,0.00,CLR,CLR,0.01,WeatherDisplay:10.37,2013-02-10 12:40:00,
2013-02-10 12:50:00,44.4,36.0,29.19,NW,315,13.0,20.0,72,0.00,CLR,CLR,0.01,WeatherDisplay:10.37,2013-02-10 12:50:00,
2013-02-10 13:00:00,44.6,35.8,29.19,NW,315,16.0,21.0,71,0.00,CLR,CLR,0.01,WeatherDisplay:10.37,2013-02-10 13:00:00,
2013-02-10 13:10:00,44.8,35.6,29.18,NW,315,14.0,21.0,70,0.00,CLR,CLR,0.01,WeatherDisplay:10.37,2013-02-10 13:10:00,
2013-02-10 13:20:00,45.0,35.4,29.18,NW,315,13.0,20.0,69,0.00,CLR,CLR,0.01,WeatherDisplay:10.37,2013-02-10 13:20:00,
2013-02-10 13:30:00,45.1,36.3,29.18,NW,320,12.0,17.0,71,0.00,CLR,CLR,0.01,WeatherDisplay:10.37,2013-02-10 13:30:00,
2013-02-10 13:40:00,45.3,36.1,29.18,North,357,10.0,16.0,70,0.00,CLR,CLR,0.01,WeatherDisplay:10.37,2013-02-10 13:40:00,
2013-02-10 13:50:00,45.3,36.1,29.18,North,0,10.0,17.0,70,0.00,CLR,CLR,0.01,WeatherDisplay:10.37,2013-02-10 13:50:00,
2013-02-10 14:00:00,45.3,36.5,29.17,North,0,9.0,15.0,71,0.00,CLR,CLR,0.01,WeatherDisplay:10.37,2013-02-10 14:00:00,
2013-02-10 14:10:00,45.1,36.3,29.17,North,0,15.0,18.0,71,0.00,CLR,CLR,0.01,WeatherDisplay:10.37,2013-02-10 14:10:00,
2013-02-10 14:20:00,44.4,36.7,29.17,North,0,15.0,22.0,74,0.00,CLR,CLR,0.01,WeatherDisplay:10.37,2013-02-10 14:20:00,
2013-02-10 14:30:00,44.2,36.5,29.16,North,357,17.0,22.0,74,0.00,CLR,CLR,0.01,WeatherDisplay:10.37,2013-02-10 14:30:00,
2013-02-10 14:40:00,44.4,36.6,29.16,North,356,15.0,20.0,74,0.00,CLR,CLR,0.01,WeatherDisplay:10.37,2013-02-10 14:40:00,
2013-02-10 14:50:00,44.8,36.3,29.15,NW,315,14.0,20.0,72,0.00,CLR,CLR,0.01,WeatherDisplay:10.37,2013-02-10 14:50:00,
2013-02-10 15:00:00,44.4,36.3,29.16,NW,315,14.0,20.0,73,0.00,CLR,CLR,0.01,WeatherDisplay:10.37,2013-02-10 15:00:00,
2013-02-10 15:10:00,44.6,36.1,29.15,NW,315,14.0,17.0,72,0.00,CLR,CLR,0.01,WeatherDisplay:10.37,2013-02-10 15:10:00,
2013-02-10 15:20:00,44.6,36.8,29.15,NW,315,12.0,17.0,74,0.00,CLR,CLR,0.01,WeatherDisplay:10.37,2013-02-10 15:20:00,
2013-02-10 15:30:00,44.6,36.8,29.15,NW,315,12.0,18.0,74,0.00,CLR,CLR,0.01,WeatherDisplay:10.37,2013-02-10 15:30:00,
2013-02-10 15:40:00,44.6,37.5,29.15,NW,313,13.0,18.0,76,0.00,CLR,CLR,0.01,WeatherDisplay:10.37,2013-02-10 15:40:00,
2013-02-10 15:50:00,44.4,37.0,29.15,NW,315,15.0,21.0,75,0.00,CLR,CLR,0.01,WeatherDisplay:10.37,2013-02-10 15:50:00,
2013-02-10 16:00:00,44.1,36.7,29.15,NW,315,15.0,23.0,75,0.00,CLR,CLR,0.01,WeatherDisplay:10.37,2013-02-10 16:00:00,
2013-02-10 16:10:00,44.1,36.6,29.14,NW,315,14.0,20.0,75,0.00,CLR,CLR,0.01,WeatherDisplay:10.37,2013-02-10 16:10:00,
2013-02-10 16:20:00,44.1,36.6,29.14,NW,315,13.0,18.0,75,0.00,CLR,CLR,0.01,WeatherDisplay:10.37,2013-02-10 16:20:00,
2013-02-10 16:30:00,43.8,36.7,29.14,NW,315,15.0,21.0,76,0.00,CLR,CLR,0.01,WeatherDisplay:10.37,2013-02-10 16:30:00,
2013-02-10 16:40:00,43.7,37.3,29.14,NW,315,15.0,20.0,78,0.00,CLR,CLR,0.01,WeatherDisplay:10.37,2013-02-10 16:40:00,
2013-02-10 16:50:00,43.5,37.4,29.14,NW,315,14.0,20.0,79,0.00,CLR,CLR,0.01,WeatherDisplay:10.37,2013-02-10 16:50:00,
2013-02-10 17:00:00,43.5,37.4,29.14,NW,315,14.0,20.0,79,0.00,CLR,CLR,0.01,WeatherDisplay:10.37,2013-02-10 17:00:00,
2013-02-10 17:10:00,43.5,37.8,29.14,NW,315,13.0,18.0,80,0.00,CLR,CLR,0.01,WeatherDisplay:10.37,2013-02-10 17:10:00,
2013-02-10 17:20:00,43.5,37.8,29.14,NW,315,10.0,18.0,80,0.00,CLR,CLR,0.01,WeatherDisplay:10.37,2013-02-10 17:20:00,
2013-02-10 17:30:00,43.5,38.1,29.14,NW,315,12.0,17.0,81,0.00,CLR,CLR,0.01,WeatherDisplay:10.37,2013-02-10 17:30:00,
2013-02-10 17:40:00,43.5,37.8,29.14,NW,315,15.0,20.0,80,0.00,CLR,CLR,0.01,WeatherDisplay:10.37,2013-02-10 17:40:00,
2013-02-10 17:50:00,43.5,37.8,29.14,NW,315,14.0,20.0,80,0.00,CLR,CLR,0.01,WeatherDisplay:10.37,2013-02-10 17:50:00,
2013-02-10 18:00:00,43.3,37.9,29.14,NW,315,12.0,17.0,81,0.00,CLR,CLR,0.01,WeatherDisplay:10.37,2013-02-10 18:00:00,
2013-02-10 18:10:00,43.5,37.7,29.14,NW,315,12.0,16.0,80,0.00,CLR,CLR,0.01,WeatherDisplay:10.37,2013-02-10 18:10:00,
2013-02-10 18:20:00,43.2,38.0,29.14,NW,315,13.0,15.0,82,0.00,CLR,CLR,0.01,WeatherDisplay:10.37,2013-02-10 18:20:00,
2013-02-10 18:30:00,43.2,38.3,29.15,NW,315,13.0,16.0,83,0.00,CLR,CLR,0.01,WeatherDisplay:10.37,2013-02-10 18:30:00,
2013-02-10 18:40:00,43.3,38.5,29.15,NW,322,13.0,17.0,83,0.00,CLR,CLR,0.01,WeatherDisplay:10.37,2013-02-10 18:40:00,
2013-02-10 18:50:00,44.2,38.8,29.15,North,2,9.0,21.0,81,0.00,CLR,CLR,0.01,WeatherDisplay:10.37,2013-02-10 18:50:00,
2013-02-10 19:00:00,44.4,38.3,29.15,North,6,6.0,17.0,79,0.00,CLR,CLR,0.01,WeatherDisplay:10.37,2013-02-10 19:00:00,
2013-02-10 19:10:00,44.2,37.8,29.15,NNE,25,5.0,12.0,78,0.00,CLR,CLR,0.01,WeatherDisplay:10.37,2013-02-10 19:10:00,
2013-02-10 19:20:00,44.4,38.0,29.15,NNE,12,6.0,13.0,78,0.00,CLR,CLR,0.01,WeatherDisplay:10.37,2013-02-10 19:20:00,
2013-02-10 19:30:00,44.4,38.0,29.14,NNE,21,7.0,14.0,78,0.00,CLR,CLR,0.01,WeatherDisplay:10.37,2013-02-10 19:30:00,
2013-02-10 19:40:00,44.5,38.0,29.14,NNE,14,8.0,16.0,78,0.00,CLR,CLR,0.01,WeatherDisplay:10.37,2013-02-10 19:40:00,
2013-02-10 19:50:00,44.8,37.3,29.14,North,0,7.0,18.0,75,0.00,CLR,CLR,0.01,WeatherDisplay:10.37,2013-02-10 19:50:00,
2013-02-10 20:00:00,45.0,37.2,29.14,NE,41,9.0,20.0,74,0.00,CLR,CLR,0.01,WeatherDisplay:10.37,2013-02-10 20:00:00,
2013-02-10 20:10:00,45.0,37.2,29.14,NE,45,13.0,23.0,74,0.00,CLR,CLR,0.01,WeatherDisplay:10.37,2013-02-10 20:10:00,
2013-02-10 20:20:00,45.1,37.0,29.14,NE,45,12.0,22.0,73,0.00,CLR,CLR,0.01,WeatherDisplay:10.37,2013-02-10 20:20:00,
2013-02-10 20:30:00,45.1,36.6,29.14,NE,45,10.0,18.0,72,0.00,CLR,CLR,0.01,WeatherDisplay:10.37,2013-02-10 20:30:00,
2013-02-10 20:40:00,45.1,36.6,29.14,NNE,32,8.0,17.0,72,0.00,CLR,CLR,0.01,WeatherDisplay:10.37,2013-02-10 20:40:00,
2013-02-10 20:50:00,45.0,36.5,29.14,NNE,15,10.0,20.0,72,0.00,CLR,CLR,0.01,WeatherDisplay:10.37,2013-02-10 20:50:00,
2013-02-10 21:00:00,45.3,36.8,29.13,North,0,15.0,21.0,72,0.00,CLR,CLR,0.01,WeatherDisplay:10.37,2013-02-10 21:00:00,
2013-02-10 21:10:00,45.7,37.2,29.13,North,0,10.0,21.0,72,0.00,CLR,CLR,0.01,WeatherDisplay:10.37,2013-02-10 21:10:00,
2013-02-10 21:20:00,45.3,36.8,29.13,North,0,13.0,17.0,72,0.00,CLR,CLR,0.01,WeatherDisplay:10.37,2013-02-10 21:20:00,
2013-02-10 21:30:00,45.3,37.2,29.14,North,0,7.0,17.0,73,0.00,CLR,CLR,0.01,WeatherDisplay:10.37,2013-02-10 21:30:00,
2013-02-10 21:40:00,45.9,37.7,29.14,North,0,14.0,24.0,73,0.00,CLR,CLR,0.01,WeatherDisplay:10.37,2013-02-10 21:40:00,
2013-02-10 21:50:00,46.2,38.7,29.14,North,3,15.0,31.0,75,0.00,CLR,CLR,0.01,WeatherDisplay:10.37,2013-02-10 21:50:00,
2013-02-10 22:00:00,46.5,39.3,29.14,North,0,18.0,30.0,76,0.00,CLR,CLR,0.01,WeatherDisplay:10.37,2013-02-10 22:00:00,
2013-02-10 22:10:00,47.0,39.9,29.14,North,0,12.0,33.0,76,0.00,CLR,CLR,0.01,WeatherDisplay:10.37,2013-02-10 22:10:00,
2013-02-10 22:20:00,46.9,39.8,29.14,North,0,14.0,27.0,76,0.00,CLR,CLR,0.01,WeatherDisplay:10.37,2013-02-10 22:20:00,
2013-02-10 22:30:00,46.7,39.5,29.14,North,5,17.0,37.0,76,0.01,RA,RA,0.02,WeatherDisplay:10.37,2013-02-10 22:30:00,
2013-02-10 22:40:00,47.1,40.3,29.15,NE,42,17.0,30.0,77,0.00,CLR,CLR,0.02,WeatherDisplay:10.37,2013-02-10 22:40:00,
2013-02-10 22:50:00,47.1,39.9,29.15,North,0,16.0,30.0,76,0.00,CLR,CLR,0.02,WeatherDisplay:10.37,2013-02-10 22:50:00,
2013-02-10 23:00:00,47.2,40.0,29.15,NNW,339,14.0,29.0,76,0.00,CLR,CLR,0.02,WeatherDisplay:10.37,2013-02-10 23:00:00,
2013-02-10 23:10:00,47.7,40.5,29.15,North,357,20.0,30.0,76,0.00,CLR,CLR,0.02,WeatherDisplay:10.37,2013-02-10 23:10:00,
2013-02-10 23:20:00,47.7,40.1,29.16,North,0,16.0,30.0,75,0.00,CLR,CLR,0.02,WeatherDisplay:10.37,2013-02-10 23:20:00,
2013-02-10 23:30:00,48.2,40.3,29.16,North,0,20.0,35.0,74,0.00,CLR,CLR,0.02,WeatherDisplay:10.37,2013-02-10 23:30:00,
2013-02-10 23:40:00,47.8,40.3,29.16,North,0,14.0,35.0,75,0.00,CLR,CLR,0.02,WeatherDisplay:10.37,2013-02-10 23:40:00,
2013-02-10 23:50:00,47.2,40.4,29.17,North,0,14.0,31.0,77,0.00,CLR,CLR,0.02,WeatherDisplay:10.37,2013-02-10 23:50:00,